Terminal Aerodrome Forecast
Issued by NWS

Home | Current Version | Previous Version | Graphics & Text | Print | Product List | Glossary On
Versions: 1 2 3 4 5 6 7 8 9 10 11 12 13 14 15 16 17 18 19 20 21
000
FTUS43 KFGF 151728
TAFBJI
TAF
KBJI 151728Z 1518/1618 19004KT P6SM OVC050
     FM152000 16004KT P6SM OVC030
      TEMPO 1600/1601 2SM -SN OVC015
     FM160100 12006KT P6SM OVC025
      TEMPO 1601/1602 1SM -SN OVC015
     FM160200 12006KT 2SM -SN OVC025
     FM160800 12007KT 3SM -SN OVC015
     FM161200 12007KT P6SM OVC010
     FM161600 15007KT P6SM OVC010=

USA.gov is the U.S. government's official web portal to all federal, state and local government web resources and services.